Time;durP1;ratioP1;P1;durP2;ratioP2;P2;SDS_P1;SDS_P2;PMS_P1;PMS_P2;Temp;Humidity;BMP_temperature;BMP_pressure;BME280_temperature;BME280_humidity;BME280_pressure;Samples;Min_cycle;Max_cycle;Signal;HPM_P1;HPM_P2
2022/08/16 00:00:10;;;;;;;1.90;1.05;;;25.00;99.90;;;;;;1871494;76;21144;-82
2022/08/16 00:02:44;;;;;;;2.40;0.95;;;25.00;99.90;;;;;;1879018;75;21213;-82
2022/08/16 00:05:16;;;;;;;3.12;1.00;;;25.00;99.90;;;;;;1878856;75;21190;-82
2022/08/16 00:07:49;;;;;;;3.67;1.00;;;25.00;99.90;;;;;;1880885;75;21179;-81
2022/08/16 00:10:22;;;;;;;2.55;0.80;;;25.00;99.90;;;;;;1887419;75;21152;-82
2022/08/16 00:12:54;;;;;;;2.37;1.15;;;25.10;99.90;;;;;;1863252;75;21690;-80
2022/08/16 00:15:28;;;;;;;1.67;0.98;;;25.10;99.90;;;;;;1871310;75;21181;-83
2022/08/16 00:18:00;;;;;;;2.72;1.12;;;25.10;99.90;;;;;;1864764;75;21102;-83
2022/08/16 00:20:34;;;;;;;2.75;0.95;;;25.10;99.90;;;;;;1871134;75;21057;-81
2022/08/16 00:23:07;;;;;;;4.42;1.12;;;25.10;99.90;;;;;;1859150;75;21263;-83
2022/08/16 00:25:39;;;;;;;5.30;1.15;;;25.10;99.90;;;;;;1866765;76;21171;-81
2022/08/16 00:28:12;;;;;;;3.90;1.30;;;25.10;99.90;;;;;;1867675;75;21854;-81
2022/08/16 00:30:43;;;;;;;3.40;1.10;;;25.20;99.90;;;;;;1868075;76;21159;-71
2022/08/16 00:33:15;;;;;;;3.10;1.00;;;25.20;99.90;;;;;;1872189;76;21121;-70
2022/08/16 00:35:47;;;;;;;3.25;1.20;;;25.20;99.90;;;;;;1886775;75;21240;-70
2022/08/16 00:38:19;;;;;;;4.58;1.17;;;25.20;99.90;;;;;;1873349;76;21125;-70
2022/08/16 00:40:53;;;;;;;2.85;1.05;;;25.20;99.90;;;;;;1885633;75;21987;-70
2022/08/16 00:43:27;;;;;;;3.75;1.10;;;25.30;99.90;;;;;;1877295;76;21144;-70
2022/08/16 00:46:02;;;;;;;2.60;1.30;;;25.30;99.90;;;;;;1876607;76;21621;-71
2022/08/16 00:48:34;;;;;;;6.05;1.30;;;25.30;99.90;;;;;;1871971;76;21590;-70
2022/08/16 00:51:07;;;;;;;5.70;1.55;;;25.30;99.90;;;;;;1893593;75;21244;-72
2022/08/16 00:53:40;;;;;;;3.35;1.05;;;25.40;99.90;;;;;;1873607;76;21924;-70
2022/08/16 00:56:14;;;;;;;2.05;1.25;;;25.40;99.90;;;;;;1891354;74;21197;-70
2022/08/16 00:58:48;;;;;;;3.05;1.12;;;25.40;99.90;;;;;;1825542;77;21165;-71
2022/08/16 01:01:20;;;;;;;4.22;1.60;;;25.50;99.90;;;;;;1891340;76;21149;-71
2022/08/16 01:03:54;;;;;;;4.80;1.70;;;25.50;99.90;;;;;;1829402;77;21564;-71
2022/08/16 01:06:27;;;;;;;3.62;1.30;;;25.50;99.90;;;;;;1824587;77;21169;-70
2022/08/16 01:09:04;;;;;;;4.12;1.30;;;25.60;99.90;;;;;;1888824;75;21948;-70
2022/08/16 01:11:35;;;;;;;4.65;1.70;;;25.60;99.90;;;;;;1898581;75;21590;-70
2022/08/16 01:14:10;;;;;;;2.87;1.62;;;25.70;99.90;;;;;;1886845;75;21056;-70
2022/08/16 01:16:44;;;;;;;3.42;1.32;;;25.80;99.90;;;;;;1899692;75;21586;-70
2022/08/16 01:19:18;;;;;;;4.95;1.70;;;25.80;99.90;;;;;;1899491;75;21378;-70
2022/08/16 01:21:52;;;;;;;4.53;1.77;;;25.80;99.90;;;;;;1893155;74;21095;-70
2022/08/16 01:24:26;;;;;;;3.27;1.80;;;25.80;99.90;;;;;;1896614;74;21174;-69
2022/08/16 01:27:00;;;;;;;6.30;2.17;;;25.90;99.90;;;;;;1888742;75;21281;-69
2022/08/16 01:29:35;;;;;;;3.42;1.98;;;25.90;99.90;;;;;;1888813;75;21136;-71
2022/08/16 01:32:07;;;;;;;3.65;1.95;;;25.90;99.90;;;;;;1871513;76;21127;-70
2022/08/16 01:34:38;;;;;;;4.15;1.52;;;26.00;99.90;;;;;;1896509;75;21211;-71
2022/08/16 01:37:12;;;;;;;11.43;7.05;;;26.00;99.90;;;;;;1850749;77;21117;-70
2022/08/16 01:39:44;;;;;;;14.85;7.10;;;26.00;99.90;;;;;;1841849;77;21140;-70
2022/08/16 01:42:16;;;;;;;6.40;2.83;;;26.00;99.90;;;;;;1810350;79;21210;-70
2022/08/16 01:44:48;;;;;;;4.62;2.05;;;26.10;99.90;;;;;;1805922;79;21659;-70
2022/08/16 01:47:20;;;;;;;4.08;2.22;;;26.10;99.90;;;;;;1842327;76;21200;-70
2022/08/16 01:49:51;;;;;;;4.53;1.90;;;26.20;99.90;;;;;;1870124;76;21202;-70
2022/08/16 01:52:23;;;;;;;5.22;2.15;;;26.20;99.90;;;;;;1873136;76;21212;-69
2022/08/16 01:54:56;;;;;;;6.33;2.12;;;26.20;99.90;;;;;;1882694;75;21167;-69
2022/08/16 01:57:28;;;;;;;4.58;2.50;;;26.20;99.90;;;;;;1887650;75;21085;-71
2022/08/16 02:00:01;;;;;;;3.92;2.33;;;26.20;99.90;;;;;;1883912;75;21091;-70
2022/08/16 02:02:33;;;;;;;3.95;1.82;;;26.30;99.90;;;;;;1902213;75;21795;-69
2022/08/16 02:05:06;;;;;;;3.15;2.00;;;26.30;99.90;;;;;;1881043;75;21621;-71
2022/08/16 02:07:39;;;;;;;2.98;1.98;;;26.30;99.90;;;;;;1872025;75;21264;-70
2022/08/16 02:10:13;;;;;;;5.00;1.70;;;26.30;99.90;;;;;;1881407;75;21580;-70
2022/08/16 02:12:46;;;;;;;4.15;1.82;;;26.30;99.90;;;;;;1886033;75;21174;-70
2022/08/16 02:15:21;;;;;;;8.33;2.00;;;26.30;99.90;;;;;;1861657;75;21092;-71
2022/08/16 02:17:56;;;;;;;3.70;2.17;;;26.30;99.90;;;;;;1885767;75;21577;-71
2022/08/16 02:20:31;;;;;;;5.45;2.40;;;26.30;99.90;;;;;;1901712;74;21084;-71
2022/08/16 02:23:04;;;;;;;4.87;1.90;;;26.30;99.90;;;;;;1895957;75;21618;-69
2022/08/16 02:25:36;;;;;;;4.00;2.02;;;26.30;99.90;;;;;;1901510;75;21135;-70
2022/08/16 02:28:08;;;;;;;5.00;2.60;;;26.30;99.90;;;;;;1904627;75;21189;-70
2022/08/16 02:30:39;;;;;;;3.17;2.15;;;26.30;99.90;;;;;;1881543;75;21599;-71
2022/08/16 02:33:13;;;;;;;3.20;1.90;;;26.30;99.90;;;;;;1876118;75;21123;-69
2022/08/16 02:35:44;;;;;;;3.95;2.87;;;26.30;99.90;;;;;;1880627;76;21140;-70
2022/08/16 02:38:16;;;;;;;6.17;3.70;;;26.40;99.90;;;;;;1873156;75;21154;-70
2022/08/16 02:40:48;;;;;;;9.78;6.33;;;26.40;99.90;;;;;;1878152;75;22032;-69
2022/08/16 02:43:19;;;;;;;13.08;9.65;;;26.40;99.90;;;;;;1876500;75;21611;-70
2022/08/16 02:45:51;;;;;;;6.92;3.85;;;26.50;99.90;;;;;;1864661;76;21186;-70
2022/08/16 02:48:23;;;;;;;5.35;3.22;;;26.50;99.90;;;;;;1874874;76;21539;-70
2022/08/16 02:50:57;;;;;;;73.15;46.48;;;26.50;99.90;;;;;;1883651;75;21103;-71
2022/08/16 02:53:29;;;;;;;17.80;14.75;;;26.50;99.90;;;;;;1874608;75;21186;-71
2022/08/16 02:56:01;;;;;;;6.47;4.85;;;26.50;99.90;;;;;;1858914;75;21137;-72
2022/08/16 02:58:32;;;;;;;19.77;14.63;;;26.60;99.90;;;;;;1876446;75;21147;-70
2022/08/16 03:01:03;;;;;;;126.42;102.82;;;26.60;99.90;;;;;;1891526;75;21736;-70
2022/08/16 03:03:36;;;;;;;29.60;21.23;;;26.60;99.90;;;;;;1884513;75;21537;-71
2022/08/16 03:06:08;;;;;;;41.25;33.70;;;26.70;99.90;;;;;;1872850;75;21737;-71
2022/08/16 03:08:40;;;;;;;5.90;3.52;;;26.70;99.90;;;;;;1876518;75;21099;-71
2022/08/16 03:11:15;;;;;;;5.33;3.27;;;26.70;99.90;;;;;;1875691;74;21175;-70
2022/08/16 03:13:51;;;;;;;5.33;2.65;;;26.70;99.90;;;;;;1887788;74;21116;-84
2022/08/16 03:16:25;;;;;;;3.72;2.80;;;26.80;99.90;;;;;;1841085;76;21181;-85
2022/08/16 03:18:57;;;;;;;3.87;2.42;;;26.80;99.90;;;;;;1843120;76;21191;-83
2022/08/16 03:21:31;;;;;;;3.27;2.60;;;26.80;99.90;;;;;;1839850;78;21110;-83
2022/08/16 03:24:03;;;;;;;4.97;2.35;;;26.90;99.90;;;;;;1860220;77;21135;-84
2022/08/16 03:26:36;;;;;;;3.70;2.50;;;27.00;99.90;;;;;;1844883;77;21253;-84
2022/08/16 03:29:07;;;;;;;3.42;2.47;;;27.10;99.90;;;;;;1881710;75;21218;-83
2022/08/16 03:31:39;;;;;;;4.40;2.83;;;27.30;99.90;;;;;;1879024;75;21681;-84
2022/08/16 03:34:20;;;;;;;4.15;2.70;;;27.30;99.90;;;;;;1861993;75;21579;-85
2022/08/16 03:36:55;;;;;;;3.42;2.10;;;27.40;99.90;;;;;;1858401;77;21599;-83
2022/08/16 03:39:29;;;;;;;6.20;3.42;;;27.50;99.90;;;;;;1874029;75;21146;-83
2022/08/16 03:42:04;;;;;;;3.90;2.55;;;27.50;99.90;;;;;;1879282;76;21601;-84
2022/08/16 03:44:37;;;;;;;3.90;2.80;;;27.50;99.90;;;;;;1872506;76;21515;-84
2022/08/16 03:47:09;;;;;;;7.72;2.70;;;27.60;99.90;;;;;;1861758;76;21140;-83
2022/08/16 03:49:40;;;;;;;3.52;2.40;;;27.60;99.90;;;;;;1867650;76;21132;-84
2022/08/16 03:52:12;;;;;;;3.70;2.55;;;27.60;99.90;;;;;;1873450;76;21206;-84
2022/08/16 03:54:46;;;;;;;4.15;2.70;;;27.60;99.90;;;;;;1874815;76;21187;-84
2022/08/16 03:57:18;;;;;;;6.15;3.25;;;27.60;99.90;;;;;;1865858;76;21494;-83
2022/08/16 03:59:49;;;;;;;5.08;3.08;;;27.60;99.90;;;;;;1869216;76;21080;-84
2022/08/16 04:02:21;;;;;;;4.92;2.83;;;27.60;99.90;;;;;;1867336;76;21619;-83
2022/08/16 04:04:54;;;;;;;4.60;2.33;;;27.50;99.90;;;;;;1868240;76;21184;-83
2022/08/16 04:07:25;;;;;;;3.22;2.62;;;27.50;99.90;;;;;;1870643;76;21109;-84
2022/08/16 04:09:58;;;;;;;3.25;2.37;;;27.50;99.90;;;;;;1868178;76;21129;-83
2022/08/16 04:12:30;;;;;;;4.40;2.52;;;27.50;99.90;;;;;;1861088;76;21256;-83
2022/08/16 04:15:03;;;;;;;5.03;3.17;;;27.50;99.90;;;;;;1864755;76;21115;-85
2022/08/16 04:17:35;;;;;;;4.08;2.90;;;27.50;99.90;;;;;;1868515;76;21262;-84
2022/08/16 04:20:08;;;;;;;4.40;3.00;;;27.50;99.90;;;;;;1866444;76;21176;-84
2022/08/16 04:22:43;;;;;;;4.70;2.70;;;27.50;99.90;;;;;;1861309;76;21183;-84
2022/08/16 04:25:15;;;;;;;4.25;2.80;;;27.60;99.90;;;;;;1862989;76;21105;-84
2022/08/16 04:27:47;;;;;;;3.37;2.42;;;27.50;99.90;;;;;;1870273;76;21186;-84
2022/08/16 04:30:38;;;;;;;3.75;2.40;;;27.60;99.90;;;;;;1867647;76;21206;-83
2022/08/16 04:33:09;;;;;;;2.65;2.08;;;27.50;99.90;;;;;;1867473;76;21104;-85
2022/08/16 04:35:40;;;;;;;3.80;2.08;;;27.50;99.90;;;;;;1873775;76;21235;-85
2022/08/16 04:38:14;;;;;;;3.47;2.58;;;27.50;99.90;;;;;;1870600;76;21094;-84
2022/08/16 04:40:47;;;;;;;5.65;2.55;;;27.40;99.90;;;;;;1873765;76;21184;-84
2022/08/16 04:43:19;;;;;;;5.70;3.25;;;27.50;99.90;;;;;;1866119;76;21708;-84
2022/08/16 04:45:51;;;;;;;11.30;5.75;;;27.50;99.90;;;;;;1869803;76;21878;-84
2022/08/16 04:48:23;;;;;;;17.20;9.53;;;27.50;99.90;;;;;;1871250;76;21236;-85
2022/08/16 04:50:56;;;;;;;7.25;3.80;;;27.50;99.90;;;;;;1861658;76;21191;-85
2022/08/16 04:53:27;;;;;;;6.47;3.35;;;27.60;99.90;;;;;;1874112;76;21164;-83
2022/08/16 04:55:59;;;;;;;4.70;2.80;;;27.60;99.90;;;;;;1874737;76;21409;-83
2022/08/16 04:58:32;;;;;;;4.78;2.72;;;27.60;99.90;;;;;;1876988;76;21131;-84
2022/08/16 05:05:23;;;;;;;6.10;2.72;;;27.70;99.90;;;;;;1802217;78;21158;-84
2022/08/16 05:07:17;;;;;;;5.95;2.45;;;27.80;99.90;;;;;;1814312;77;21520;-83
2022/08/16 05:09:54;;;;;;;4.45;2.20;;;27.80;99.90;;;;;;1815941;77;21206;-86
2022/08/16 05:12:29;;;;;;;3.00;2.55;;;27.80;99.90;;;;;;1823208;78;21187;-85
2022/08/16 05:15:00;;;;;;;4.33;2.98;;;27.80;99.90;;;;;;1827309;77;21138;-85
2022/08/16 05:17:32;;;;;;;5.03;2.27;;;27.90;99.90;;;;;;1819245;77;21169;-85
2022/08/16 05:20:06;;;;;;;5.75;2.90;;;27.90;99.90;;;;;;1822628;78;21203;-87
2022/08/16 05:22:41;;;;;;;5.65;2.83;;;28.00;99.90;;;;;;1824367;77;21135;-85
2022/08/16 05:25:15;;;;;;;3.72;2.55;;;28.10;99.90;;;;;;1819727;78;21260;-84
2022/08/16 05:27:50;;;;;;;3.02;2.30;;;28.10;99.90;;;;;;1824257;77;21244;-84
2022/08/16 05:30:21;;;;;;;2.95;1.90;;;28.20;99.90;;;;;;1819919;77;21133;-83
2022/08/16 05:32:54;;;;;;;3.22;1.85;;;28.30;99.90;;;;;;1817212;77;21236;-84
2022/08/16 05:35:26;;;;;;;5.28;2.62;;;28.40;99.90;;;;;;1819122;78;21623;-84
2022/08/16 05:37:57;;;;;;;4.60;2.25;;;28.60;99.90;;;;;;1816067;78;21144;-84
2022/08/16 05:40:28;;;;;;;3.15;2.17;;;28.80;99.90;;;;;;1812902;76;21210;-84
2022/08/16 05:42:59;;;;;;;3.62;2.35;;;28.90;99.90;;;;;;1826941;77;21157;-84
2022/08/16 05:45:31;;;;;;;3.60;2.60;;;29.00;99.90;;;;;;1826572;76;21275;-84
2022/08/16 05:48:04;;;;;;;3.27;2.30;;;29.20;99.90;;;;;;1811021;77;21154;-84
2022/08/16 05:50:35;;;;;;;2.95;2.10;;;29.40;99.90;;;;;;1810703;79;21215;-84
2022/08/16 05:53:07;;;;;;;2.67;1.90;;;29.50;99.90;;;;;;1810179;78;21544;-84
2022/08/16 05:55:40;;;;;;;3.75;1.75;;;29.60;99.90;;;;;;1882731;76;21492;-84
2022/08/16 05:58:11;;;;;;;3.65;2.10;;;29.70;99.90;;;;;;1846565;77;21155;-85
2022/08/16 06:00:43;;;;;;;2.12;1.60;;;29.80;99.90;;;;;;1805243;74;21173;-84
2022/08/16 06:03:15;;;;;;;3.87;1.80;;;29.90;99.90;;;;;;1791764;79;21226;-84
2022/08/16 06:05:46;;;;;;;2.30;1.67;;;30.00;99.90;;;;;;1788691;79;21134;-84
2022/08/16 06:08:17;;;;;;;4.45;1.60;;;30.00;99.90;;;;;;1794065;79;21181;-85
2022/08/16 06:10:49;;;;;;;4.92;1.80;;;30.00;99.90;;;;;;1799845;77;21120;-83
2022/08/16 06:13:22;;;;;;;2.92;1.92;;;29.80;99.90;;;;;;1795250;79;21144;-82
2022/08/16 06:15:54;;;;;;;2.45;1.70;;;29.70;99.90;;;;;;1789777;78;21245;-85
2022/08/16 06:18:26;;;;;;;2.65;1.52;;;29.70;99.90;;;;;;1791397;79;21633;-85
2022/08/16 06:20:57;;;;;;;2.75;1.57;;;29.70;99.90;;;;;;1780766;80;21599;-85
2022/08/16 06:23:29;;;;;;;2.92;1.75;;;29.80;99.90;;;;;;1782732;80;21170;-84
2022/08/16 06:26:12;;;;;;;4.00;1.80;;;29.80;99.90;;;;;;1783766;80;21693;-84
2022/08/16 06:28:44;;;;;;;2.52;1.47;;;29.90;99.90;;;;;;1783611;79;21134;-86
2022/08/16 06:31:17;;;;;;;2.58;1.80;;;30.00;99.90;;;;;;1756367;81;21161;-85
2022/08/16 06:33:49;;;;;;;2.70;1.62;;;30.10;99.90;;;;;;1751880;81;21238;-82
2022/08/16 06:36:22;;;;;;;5.87;1.60;;;30.10;99.90;;;;;;1782082;80;21162;-85
2022/08/16 06:38:54;;;;;;;2.85;1.37;;;30.10;99.90;;;;;;1754395;80;21234;-83
2022/08/16 06:41:26;;;;;;;2.02;1.60;;;30.10;99.90;;;;;;1806764;78;21176;-83
2022/08/16 06:43:59;;;;;;;2.75;1.37;;;30.10;99.90;;;;;;1833274;78;21071;-84
2022/08/16 06:46:38;;;;;;;3.12;1.37;;;30.10;99.90;;;;;;1824153;78;21175;-84
2022/08/16 06:49:07;;;;;;;2.95;1.30;;;30.10;99.90;;;;;;1819439;76;21690;-84
2022/08/16 06:51:41;;;;;;;2.25;1.57;;;30.10;99.90;;;;;;1806379;78;21150;-84
2022/08/16 06:54:13;;;;;;;4.45;1.50;;;30.10;99.80;;;;;;1789305;79;21281;-83
2022/08/16 06:56:44;;;;;;;3.62;2.55;;;30.10;99.60;;;;;;1799758;79;21213;-84
2022/08/16 06:59:17;;;;;;;3.90;2.02;;;30.20;99.90;;;;;;1788263;79;21138;-85
2022/08/16 07:01:49;;;;;;;2.87;1.80;;;30.20;99.80;;;;;;1801618;78;21178;-85
2022/08/16 07:04:21;;;;;;;2.22;1.55;;;30.20;98.90;;;;;;1789996;77;21278;-85
2022/08/16 07:06:54;;;;;;;2.22;1.40;;;30.20;99.10;;;;;;1787901;78;21134;-84
2022/08/16 07:09:26;;;;;;;1.90;1.22;;;30.20;98.90;;;;;;1785001;79;21276;-85
2022/08/16 07:11:59;;;;;;;5.53;2.27;;;30.30;99.00;;;;;;1786353;79;21264;-85
2022/08/16 07:14:31;;;;;;;2.98;1.67;;;30.30;97.90;;;;;;1778048;80;21154;-84
2022/08/16 07:17:04;;;;;;;3.52;1.62;;;30.20;98.20;;;;;;1785462;79;21136;-85
2022/08/16 07:19:37;;;;;;;3.20;1.87;;;30.30;99.80;;;;;;1766004;80;21166;-84
2022/08/16 07:22:09;;;;;;;3.95;1.85;;;30.30;98.40;;;;;;1761802;78;21207;-84
2022/08/16 07:24:43;;;;;;;2.17;1.70;;;30.20;98.00;;;;;;1752512;80;21115;-84
2022/08/16 07:27:14;;;;;;;3.40;2.25;;;30.30;98.10;;;;;;1766117;80;21163;-85
2022/08/16 07:29:46;;;;;;;4.47;1.87;;;30.30;99.80;;;;;;1785321;79;21116;-86
2022/08/16 07:32:20;;;;;;;2.67;2.05;;;30.30;99.00;;;;;;1788350;78;21721;-85
2022/08/16 07:34:52;;;;;;;4.37;1.80;;;30.30;99.00;;;;;;1762282;79;21596;-85
2022/08/16 07:37:23;;;;;;;5.75;3.50;;;30.40;98.40;;;;;;1791425;79;21162;-84
2022/08/16 07:39:59;;;;;;;3.87;1.98;;;30.40;98.00;;;;;;1782058;80;21587;-83
2022/08/16 07:42:33;;;;;;;2.65;2.20;;;30.30;97.90;;;;;;1784286;78;21163;-84
2022/08/16 07:45:06;;;;;;;2.50;2.00;;;30.30;97.80;;;;;;1785993;79;21187;-85
2022/08/16 07:47:38;;;;;;;2.47;1.95;;;30.30;97.60;;;;;;1752627;82;21587;-84
2022/08/16 07:50:13;;;;;;;2.83;1.62;;;30.30;97.40;;;;;;1788303;79;21326;-84
2022/08/16 07:52:45;;;;;;;2.30;1.72;;;30.30;97.60;;;;;;1791033;79;21166;-84
2022/08/16 07:55:18;;;;;;;3.98;2.20;;;30.30;97.10;;;;;;1785941;79;21155;-85
2022/08/16 07:57:55;;;;;;;1.98;1.52;;;30.30;97.10;;;;;;1782649;80;21218;-85
2022/08/16 08:00:28;;;;;;;4.97;2.17;;;30.30;97.30;;;;;;1782535;80;21104;-84
2022/08/16 08:03:00;;;;;;;2.65;1.80;;;30.40;96.80;;;;;;1783046;79;21797;-86
2022/08/16 08:05:39;;;;;;;1.98;1.42;;;30.50;97.30;;;;;;1807307;78;21214;-85
2022/08/16 08:08:11;;;;;;;3.25;1.70;;;30.50;97.50;;;;;;1825091;78;21635;-85
2022/08/16 08:10:44;;;;;;;2.55;1.80;;;30.50;97.60;;;;;;1802173;77;21190;-84
2022/08/16 08:13:15;;;;;;;2.42;1.52;;;30.50;98.60;;;;;;1802739;78;21741;-83
2022/08/16 08:15:57;;;;;;;2.00;1.50;;;30.50;97.30;;;;;;1812579;79;21707;-85
2022/08/16 08:18:36;;;;;;;3.25;1.60;;;30.60;97.80;;;;;;1816963;79;22048;-87
2022/08/16 08:21:11;;;;;;;2.30;1.70;;;30.60;96.80;;;;;;1815195;79;21144;-84
2022/08/16 08:23:42;;;;;;;3.20;1.80;;;30.60;96.60;;;;;;1817220;77;21159;-86
2022/08/16 08:26:14;;;;;;;4.40;1.82;;;30.60;97.00;;;;;;1817162;79;21119;-85
2022/08/16 08:28:47;;;;;;;2.17;1.45;;;30.60;97.30;;;;;;1817102;79;21634;-85
2022/08/16 08:31:22;;;;;;;3.52;1.57;;;30.50;96.70;;;;;;1785522;79;21171;-84
2022/08/16 08:33:58;;;;;;;2.77;1.70;;;30.50;97.80;;;;;;1814910;77;21562;-86
2022/08/16 08:36:32;;;;;;;3.92;1.95;;;30.50;98.10;;;;;;1813633;76;21138;-88
2022/08/16 08:39:09;;;;;;;3.60;1.65;;;30.50;97.80;;;;;;1814507;77;21168;-83
2022/08/16 08:41:46;;;;;;;3.37;1.47;;;30.50;97.70;;;;;;1817934;78;21238;-86
2022/08/16 08:44:21;;;;;;;2.77;1.47;;;30.40;97.10;;;;;;1812146;77;21076;-85
2022/08/16 08:46:57;;;;;;;4.17;1.25;;;30.50;97.70;;;;;;1804603;79;21137;-86
2022/08/16 08:49:28;;;;;;;2.77;1.45;;;30.50;96.70;;;;;;1806040;78;21126;-86
2022/08/16 08:52:04;;;;;;;2.10;1.40;;;30.50;97.40;;;;;;1803731;79;21177;-85
2022/08/16 08:54:37;;;;;;;3.47;1.22;;;30.50;97.20;;;;;;1817563;77;21281;-87
2022/08/16 08:57:08;;;;;;;2.20;1.37;;;30.40;96.10;;;;;;1819827;77;21121;-85
2022/08/16 08:59:46;;;;;;;2.25;1.42;;;30.40;96.10;;;;;;1831206;77;21063;-85
2022/08/16 09:02:17;;;;;;;2.75;1.80;;;30.40;98.60;;;;;;1828254;77;21161;-86
2022/08/16 09:04:50;;;;;;;3.33;1.47;;;30.40;99.00;;;;;;1815115;78;21149;-84
2022/08/16 09:07:22;;;;;;;2.58;1.70;;;30.30;97.70;;;;;;1827119;78;21147;-86
2022/08/16 09:09:54;;;;;;;3.42;1.70;;;30.30;98.50;;;;;;1821531;78;21178;-86
2022/08/16 09:12:26;;;;;;;4.37;1.70;;;30.20;98.60;;;;;;1807155;79;21249;-86
2022/08/16 09:14:59;;;;;;;3.67;1.87;;;30.20;98.50;;;;;;1825487;77;21099;-85
2022/08/16 09:17:30;;;;;;;3.35;1.50;;;30.20;98.70;;;;;;1825040;78;21689;-86
2022/08/16 09:20:03;;;;;;;3.50;1.57;;;30.10;98.50;;;;;;1818752;78;21183;-84
2022/08/16 09:22:36;;;;;;;2.50;1.50;;;30.00;98.70;;;;;;1796822;79;21165;-84
2022/08/16 09:25:08;;;;;;;3.87;1.70;;;30.00;98.40;;;;;;1799950;79;21161;-84
2022/08/16 09:27:41;;;;;;;5.35;1.95;;;29.90;98.50;;;;;;1807447;78;21247;-85
2022/08/16 09:30:14;;;;;;;4.95;2.37;;;29.90;98.40;;;;;;1805454;78;21167;-86
2022/08/16 09:32:47;;;;;;;4.03;2.40;;;29.90;98.70;;;;;;1804716;79;21189;-86
2022/08/16 09:35:19;;;;;;;4.40;2.00;;;29.80;98.80;;;;;;1808209;79;21131;-87
2022/08/16 09:37:52;;;;;;;3.65;2.08;;;29.80;99.20;;;;;;1810615;77;21224;-87
2022/08/16 09:40:24;;;;;;;5.12;2.35;;;29.60;99.60;;;;;;1798739;79;21201;-85
2022/08/16 09:42:57;;;;;;;4.62;2.10;;;29.50;99.90;;;;;;1801704;77;21268;-85
2022/08/16 09:45:29;;;;;;;3.92;1.98;;;29.30;99.90;;;;;;1809012;78;21212;-85
2022/08/16 09:48:01;;;;;;;6.37;2.67;;;29.20;99.90;;;;;;1832216;78;21205;-86
2022/08/16 09:50:35;;;;;;;5.33;2.37;;;29.20;99.90;;;;;;1843907;77;21088;-85
2022/08/16 09:53:11;;;;;;;10.08;2.47;;;29.00;99.90;;;;;;1804283;78;21175;-86
2022/08/16 09:55:46;;;;;;;5.92;2.83;;;29.00;99.90;;;;;;1838714;78;21095;-82
2022/08/16 09:58:22;;;;;;;5.33;2.70;;;28.90;99.90;;;;;;1847916;75;21126;-84
2022/08/16 10:00:54;;;;;;;4.60;2.58;;;28.80;99.90;;;;;;1846191;77;21212;-85
2022/08/16 10:03:27;;;;;;;4.17;2.15;;;28.70;99.90;;;;;;1878724;76;21143;-85
2022/08/16 10:05:59;;;;;;;6.85;2.20;;;28.60;99.90;;;;;;1878592;76;21627;-84
2022/08/16 10:08:30;;;;;;;2.70;1.50;;;28.50;99.90;;;;;;1816853;78;21638;-86
2022/08/16 10:13:36;;;;;;;4.08;1.90;;;28.40;99.90;;;;;;1870970;76;21215;-87
2022/08/16 10:16:12;;;;;;;11.70;6.60;;;28.30;99.90;;;;;;1879054;75;21565;-86
2022/08/16 10:18:42;;;;;;;11.18;7.20;;;28.20;99.90;;;;;;1878441;76;21137;-85
2022/08/16 10:21:14;;;;;;;5.10;2.20;;;28.10;99.90;;;;;;1867760;75;21128;-83
2022/08/16 10:23:48;;;;;;;4.00;1.92;;;28.00;99.90;;;;;;1846082;78;21219;-85
2022/08/16 10:26:23;;;;;;;4.30;1.80;;;28.00;99.90;;;;;;1853057;77;21173;-86
2022/08/16 10:28:55;;;;;;;4.25;1.80;;;27.90;99.90;;;;;;1886545;76;21202;-85
2022/08/16 10:31:27;;;;;;;5.60;2.35;;;27.90;99.90;;;;;;1855558;77;21595;-84
2022/08/16 10:34:00;;;;;;;5.97;2.17;;;27.90;99.90;;;;;;1886646;76;21791;-84
2022/08/16 10:36:31;;;;;;;4.03;2.50;;;27.90;99.90;;;;;;1855892;77;21158;-85
2022/08/16 10:39:05;;;;;;;6.92;4.08;;;27.90;99.90;;;;;;1876112;74;21183;-85
2022/08/16 10:41:37;;;;;;;4.25;2.65;;;27.90;99.90;;;;;;1889031;74;21163;-86
2022/08/16 10:44:08;;;;;;;3.45;2.12;;;27.90;99.90;;;;;;1853792;77;21147;-82
2022/08/16 10:46:39;;;;;;;3.37;2.22;;;27.90;99.90;;;;;;1844789;76;21191;-83
2022/08/16 10:49:12;;;;;;;3.33;2.50;;;27.90;99.90;;;;;;1882752;75;21639;-83
2022/08/16 10:51:45;;;;;;;4.97;2.02;;;27.90;99.90;;;;;;1837346;77;21134;-83
2022/08/16 10:54:17;;;;;;;4.08;2.12;;;27.90;99.90;;;;;;1852740;77;21169;-83
2022/08/16 10:56:54;;;;;;;3.00;2.00;;;27.90;99.90;;;;;;1855151;77;21098;-84
2022/08/16 10:59:24;;;;;;;5.03;2.70;;;27.90;99.90;;;;;;1882681;74;21727;-83
2022/08/16 11:01:57;;;;;;;3.92;2.08;;;27.90;99.90;;;;;;1872352;75;21247;-84
2022/08/16 11:04:30;;;;;;;5.80;2.33;;;27.90;99.90;;;;;;1909590;74;21663;-83
2022/08/16 11:07:03;;;;;;;4.08;2.02;;;27.90;99.90;;;;;;1889710;74;21097;-84
2022/08/16 11:09:35;;;;;;;4.50;1.92;;;27.90;99.90;;;;;;1869916;75;21395;-83
2022/08/16 11:12:08;;;;;;;4.92;1.87;;;27.90;99.90;;;;;;1888550;74;21166;-84
2022/08/16 11:14:41;;;;;;;3.22;2.02;;;27.90;99.90;;;;;;1881491;76;21170;-84
2022/08/16 11:17:13;;;;;;;4.03;2.00;;;27.80;99.90;;;;;;1878672;75;21122;-83
2022/08/16 11:19:44;;;;;;;5.70;2.40;;;27.80;99.90;;;;;;1873593;76;21110;-84
2022/08/16 11:22:18;;;;;;;4.85;2.77;;;27.80;99.90;;;;;;1864374;76;21135;-84
2022/08/16 11:24:50;;;;;;;4.80;2.65;;;27.80;99.90;;;;;;1871812;76;21168;-83
2022/08/16 11:27:25;;;;;;;6.75;2.05;;;27.80;99.90;;;;;;1895135;74;21859;-83
2022/08/16 11:29:57;;;;;;;3.87;2.10;;;27.70;99.90;;;;;;1895712;74;21799;-84
2022/08/16 11:32:30;;;;;;;3.17;2.02;;;27.70;99.90;;;;;;1890159;74;21777;-84
2022/08/16 11:35:05;;;;;;;2.95;1.60;;;27.70;99.90;;;;;;1891742;76;21142;-84
2022/08/16 11:37:37;;;;;;;4.08;2.35;;;27.60;99.90;;;;;;1890574;75;21127;-86
2022/08/16 11:40:11;;;;;;;3.70;2.10;;;27.60;99.90;;;;;;1896120;74;21510;-84
2022/08/16 11:42:46;;;;;;;5.78;2.00;;;27.60;99.90;;;;;;1895022;73;21112;-84
2022/08/16 11:45:17;;;;;;;2.58;1.47;;;27.50;99.90;;;;;;1893250;75;21063;-84
2022/08/16 11:48:08;;;;;;;2.90;1.72;;;27.50;99.90;;;;;;1875173;76;21087;-83
2022/08/16 11:50:40;;;;;;;3.47;1.77;;;27.40;99.90;;;;;;1917159;74;21118;-84
2022/08/16 11:53:13;;;;;;;2.47;1.20;;;27.30;99.90;;;;;;1875954;75;21164;-83
2022/08/16 11:55:49;;;;;;;2.58;1.50;;;27.30;99.90;;;;;;1876799;76;21129;-85
2022/08/16 11:58:23;;;;;;;4.78;1.50;;;27.20;99.90;;;;;;1867430;76;21249;-85
2022/08/16 12:00:56;;;;;;;4.17;1.05;;;27.10;99.90;;;;;;1863319;76;21162;-85
2022/08/16 12:03:40;;;;;;;2.35;1.12;;;27.00;99.90;;;;;;1856842;77;21149;-83
2022/08/16 12:06:29;;;;;;;2.55;1.40;;;27.00;99.90;;;;;;1854487;75;21213;-84
2022/08/16 12:09:03;;;;;;;3.15;1.27;;;26.90;99.90;;;;;;1896336;74;21171;-84
2022/08/16 12:11:35;;;;;;;3.17;1.17;;;26.90;99.90;;;;;;1878887;74;21180;-85
2022/08/16 12:14:09;;;;;;;3.65;1.57;;;26.80;99.90;;;;;;1876601;74;21121;-84
2022/08/16 12:16:45;;;;;;;2.47;1.20;;;26.80;99.90;;;;;;1887571;74;21181;-84
2022/08/16 12:19:18;;;;;;;3.45;1.05;;;26.90;99.90;;;;;;1875362;75;21058;-84
2022/08/16 12:21:51;;;;;;;2.25;0.85;;;26.80;99.90;;;;;;1832815;78;21193;-86
2022/08/16 12:24:23;;;;;;;3.52;1.10;;;26.80;99.90;;;;;;1846273;76;21110;-84
2022/08/16 12:26:55;;;;;;;4.12;1.37;;;26.70;99.90;;;;;;1878063;75;21143;-84
2022/08/16 12:29:31;;;;;;;2.58;0.95;;;26.70;99.90;;;;;;1862984;76;21091;-84
2022/08/16 12:32:06;;;;;;;4.72;1.62;;;26.60;99.90;;;;;;1861474;76;21123;-85
2022/08/16 12:34:41;;;;;;;3.30;1.30;;;26.60;99.90;;;;;;1834521;78;21133;-84
2022/08/16 12:37:19;;;;;;;5.20;1.60;;;26.50;99.90;;;;;;1835864;76;21193;-84
2022/08/16 12:39:55;;;;;;;2.85;1.92;;;26.50;99.90;;;;;;1883620;75;21076;-83
2022/08/16 12:42:31;;;;;;;4.62;1.87;;;26.50;99.90;;;;;;1906255;74;21615;-83
2022/08/16 12:45:05;;;;;;;4.05;2.22;;;26.50;99.90;;;;;;1860187;74;21072;-83
2022/08/16 12:50:10;;;;;;;4.75;1.70;;;26.40;99.90;;;;;;1899746;75;21159;-82
2022/08/16 12:52:42;;;;;;;3.20;1.80;;;26.40;99.90;;;;;;1913652;73;21167;-84
2022/08/16 12:55:15;;;;;;;3.22;2.15;;;26.40;99.90;;;;;;1914597;73;21233;-85
2022/08/16 12:57:50;;;;;;;6.70;2.00;;;26.40;99.90;;;;;;1898410;74;21215;-82
2022/08/16 13:00:29;;;;;;;4.17;2.40;;;26.40;99.90;;;;;;1931653;74;21300;-84
2022/08/16 13:03:04;;;;;;;3.27;1.80;;;26.30;99.90;;;;;;1908096;74;21199;-83
2022/08/16 13:05:42;;;;;;;3.20;1.40;;;26.30;99.90;;;;;;1938996;74;21197;-83
2022/08/16 13:08:17;;;;;;;3.10;1.70;;;26.30;99.90;;;;;;1911524;74;21258;-83
2022/08/16 13:10:51;;;;;;;4.00;1.80;;;26.30;99.90;;;;;;1914189;74;21537;-84
2022/08/16 13:13:25;;;;;;;3.60;1.92;;;26.30;99.90;;;;;;1893407;74;21103;-83
2022/08/16 13:16:02;;;;;;;5.20;2.08;;;26.40;99.90;;;;;;1885121;75;21263;-83
2022/08/16 13:18:35;;;;;;;2.83;1.62;;;26.40;99.90;;;;;;1844407;77;21132;-83
2022/08/16 13:21:09;;;;;;;2.67;1.82;;;26.30;99.90;;;;;;1869880;77;21137;-84
2022/08/16 13:23:40;;;;;;;4.75;1.57;;;26.40;99.90;;;;;;1846489;78;21084;-84